Hamilton City, California
Current Conditions -  °F | °C
As of 5:55 AM on Saturday 25 Oct 2014 (Local Time) from KCIC Reporting Station
Overcast Overcast  
Wind Chill: 64°   Ceiling: 3800
Heat Index: 64°   Visibility: 10mi
Dew Point: 50°   Wind: 26mph
Humidity: 59%   Direction: 150°SSE
Pressure: 29.84"   Gusts: 32mph
Location:  39.74°N, 122.02°W
Report Text: KCIC 251255Z AUTO 15023G28KT 10SM OVC038 18/10 A2984 RMK AO1
Loading
Personal Weather Stations






























Interactive Weather Map
Tropical Storm Tracking
New forecast layout! Learn more

10-Day Weather Forecast

Advertisements
Track Severe Weather on mobile